Time;durP1;ratioP1;P1;durP2;ratioP2;P2;SDS_P1;SDS_P2;PMS_P1;PMS_P2;Temp;Humidity;BMP_temperature;BMP_pressure;BME280_temperature;BME280_humidity;BME280_pressure;Samples;Min_cycle;Max_cycle;Signal;HPM_P1;HPM_P2
2023/03/29 00:01:29;;;;;;;1.98;1.75;;;8.80;87.60;;;;;;4988925;28;20065;-74
2023/03/29 00:03:56;;;;;;;2.17;1.27;;;8.80;86.70;;;;;;4989457;28;20057;-73
2023/03/29 00:06:22;;;;;;;1.85;1.40;;;9.00;70.10;;;;;;4988676;28;20044;-73
2023/03/29 00:08:55;;;;;;;0.80;0.80;;;9.20;61.50;;;;;;4989205;28;20828;-73
2023/03/29 00:11:24;;;;;;;3.53;1.98;;;;;;;;;;4987212;28;20109;-73
2023/03/29 00:13:50;;;;;;;3.97;1.23;;;;;;;;;;4988743;28;20720;-74
2023/03/29 00:16:16;;;;;;;2.78;1.73;;;;;;;;;;4988880;28;20109;-74
2023/03/29 00:18:43;;;;;;;2.95;1.70;;;10.10;74.60;;;;;;4989140;28;20519;-74
2023/03/29 00:21:09;;;;;;;3.47;2.50;;;;;;;;;;4989157;28;20034;-74
2023/03/29 00:23:35;;;;;;;3.92;2.35;;;;;;;;;;4989002;28;20038;-73
2023/03/29 00:26:01;;;;;;;3.95;2.05;;;;;;;;;;4988910;28;20015;-74
2023/03/29 00:28:27;;;;;;;7.55;2.38;;;8.50;88.90;;;;;;4989148;28;20061;-74
2023/03/29 00:30:53;;;;;;;7.65;2.42;;;8.30;78.20;;;;;;4988412;28;20519;-73
2023/03/29 00:33:19;;;;;;;5.70;2.75;;;8.30;72.10;;;;;;4988751;28;20045;-74
2023/03/29 00:35:47;;;;;;;5.82;1.95;;;8.50;67.50;;;;;;4988283;28;20026;-73
2023/03/29 00:38:15;;;;;;;3.60;2.22;;;8.80;89.20;;;;;;4988983;28;20049;-74
2023/03/29 00:40:45;;;;;;;6.10;3.17;;;8.40;67.10;;;;;;4988875;28;20522;-73
2023/03/29 00:43:12;;;;;;;3.92;2.35;;;8.50;69.00;;;;;;4989136;28;20033;-73
2023/03/29 00:45:38;;;;;;;2.70;1.63;;;;;;;;;;4988627;28;20038;-73
2023/03/29 00:48:07;;;;;;;1.95;1.50;;;8.00;69.00;;;;;;4989137;28;20041;-74
2023/03/29 00:50:48;;;;;;;4.65;1.83;;;7.90;69.50;;;;;;4988885;28;20516;-74
2023/03/29 00:53:25;;;;;;;9.00;2.33;;;8.00;76.10;;;;;;4988531;28;20042;-74
2023/03/29 00:56:12;;;;;;;6.65;2.55;;;7.90;70.40;;;;;;4988803;28;20050;-74
2023/03/29 00:58:50;;;;;;;3.05;1.90;;;7.90;76.10;;;;;;4988685;28;20022;-74
2023/03/29 01:01:41;;;;;;;4.80;2.88;;;7.70;76.20;;;;;;4989632;28;20049;-74
2023/03/29 01:04:39;;;;;;;6.43;1.80;;;7.80;70.90;;;;;;4982736;28;20023;-74
2023/03/29 01:07:17;;;;;;;5.72;2.80;;;7.80;70.80;;;;;;5009022;28;20053;-73
2023/03/29 01:09:47;;;;;;;2.45;1.83;;;7.90;91.60;;;;;;5008604;28;20395;-74
2023/03/29 01:12:18;;;;;;;4.07;2.22;;;8.00;91.60;;;;;;4992327;28;20456;-74
2023/03/29 01:15:07;;;;;;;4.00;1.90;;;7.70;71.10;;;;;;5008558;28;20083;-73
2023/03/29 01:17:33;;;;;;;4.70;2.60;;;;;;;;;;5008774;28;20626;-73
2023/03/29 01:20:13;;;;;;;1.75;1.60;;;7.80;70.70;;;;;;5009078;28;20041;-73
2023/03/29 01:22:59;;;;;;;2.08;1.88;;;7.80;91.10;;;;;;5008930;28;20048;-74
2023/03/29 01:25:55;;;;;;;2.03;1.77;;;7.60;71.40;;;;;;5008675;28;20908;-73
2023/03/29 01:28:27;;;;;;;2.38;1.38;;;7.50;71.40;;;;;;5008711;28;20107;-73
2023/03/29 01:31:02;;;;;;;7.13;1.55;;;7.40;91.50;;;;;;5008660;28;20034;-74
2023/03/29 01:33:32;;;;;;;3.20;1.17;;;7.50;72.30;;;;;;5008516;28;20116;-74
2023/03/29 01:36:20;;;;;;;2.13;1.30;;;8.00;91.90;;;;;;5008760;28;20084;-74
2023/03/29 01:38:53;;;;;;;;;;;7.50;74.00;;;;;;5008958;28;20044;-74
2023/03/29 01:41:19;;;;;;;1.58;1.27;;;7.50;92.00;;;;;;5008712;28;19955;-73
2023/03/29 01:43:51;;;;;;;5.30;1.77;;;8.20;91.70;;;;;;5000440;28;20042;-74
2023/03/29 01:46:26;;;;;;;4.20;1.90;;;7.50;91.60;;;;;;4991306;28;20047;-72
2023/03/29 01:49:10;;;;;;;1.95;1.63;;;7.70;72.00;;;;;;4991734;28;20092;-74
2023/03/29 01:51:48;;;;;;;3.22;2.03;;;7.80;84.80;;;;;;4990057;28;20041;-74
2023/03/29 01:54:49;;;;;;;5.10;2.38;;;7.90;70.70;;;;;;4991417;28;20096;-74
2023/03/29 01:57:16;;;;;;;3.95;2.05;;;7.80;91.70;;;;;;4990877;28;20129;-74
2023/03/29 01:59:46;;;;;;;2.50;1.70;;;7.90;71.20;;;;;;4991284;28;20057;-74
2023/03/29 02:02:14;;;;;;;3.13;1.38;;;7.90;71.90;;;;;;4991030;28;20062;-73
2023/03/29 02:04:48;;;;;;;4.65;2.00;;;7.90;76.90;;;;;;4990832;28;20023;-74
2023/03/29 02:07:17;;;;;;;2.13;1.55;;;7.60;88.60;;;;;;4989598;28;20054;-73
2023/03/29 02:09:44;;;;;;;2.53;1.70;;;7.70;79.60;;;;;;4991365;28;20031;-74
2023/03/29 02:12:11;;;;;;;2.30;1.63;;;8.10;79.60;;;;;;4991039;28;20037;-73
2023/03/29 02:14:37;;;;;;;3.13;1.80;;;;;;;;;;4990520;28;20030;-74
2023/03/29 02:17:25;;;;;;;4.13;2.30;;;7.70;92.90;;;;;;4990727;28;20538;-74
2023/03/29 02:19:56;;;;;;;5.72;2.55;;;7.40;76.20;;;;;;4990191;28;20034;-74
2023/03/29 02:22:27;;;;;;;2.58;2.10;;;7.40;85.40;;;;;;4990823;28;20029;-74
2023/03/29 02:24:57;;;;;;;2.13;1.63;;;7.50;93.60;;;;;;4990787;28;20114;-73
2023/03/29 02:27:26;;;;;;;3.95;1.73;;;7.80;93.50;;;;;;4990036;28;20022;-74
2023/03/29 02:29:51;;;;;;;3.38;1.95;;;7.70;82.20;;;;;;4991025;28;20030;-73
2023/03/29 02:32:36;;;;;;;1.67;1.58;;;7.50;93.10;;;;;;4990778;28;20694;-74
2023/03/29 02:35:35;;;;;;;2.00;1.23;;;7.40;93.40;;;;;;4990767;28;20435;-73
2023/03/29 02:38:03;;;;;;;3.28;1.83;;;7.30;93.60;;;;;;4990909;28;20450;-73
2023/03/29 02:40:32;;;;;;;2.55;1.75;;;7.40;75.60;;;;;;4989903;28;20034;-74
2023/03/29 02:43:00;;;;;;;4.32;2.15;;;7.40;76.40;;;;;;4990084;28;20026;-74
2023/03/29 02:45:27;;;;;;;8.52;1.92;;;7.40;76.60;;;;;;4990036;28;20133;-74
2023/03/29 02:47:56;;;;;;;2.10;1.60;;;7.60;93.50;;;;;;4990974;28;20467;-74
2023/03/29 02:50:24;;;;;;;3.15;2.13;;;7.70;75.40;;;;;;4990604;28;20026;-74
2023/03/29 02:53:00;;;;;;;3.78;2.70;;;7.70;74.70;;;;;;4990343;28;20030;-74
2023/03/29 02:55:33;;;;;;;2.78;1.92;;;7.40;76.20;;;;;;4989928;28;20030;-73
2023/03/29 02:58:06;;;;;;;2.90;1.45;;;7.60;76.70;;;;;;4990559;28;20467;-73
2023/03/29 03:00:33;;;;;;;3.78;2.38;;;;;;;;;;4989655;28;20499;-73
2023/03/29 03:02:58;;;;;;;2.85;1.65;;;7.80;93.70;;;;;;4990320;28;20041;-74
2023/03/29 03:05:24;;;;;;;3.53;1.92;;;;;;;;;;4989889;28;20031;-74
2023/03/29 03:07:50;;;;;;;4.03;2.88;;;7.60;81.70;;;;;;4989942;28;20031;-74
2023/03/29 03:10:18;;;;;;;3.03;1.60;;;7.60;84.40;;;;;;4989687;28;20037;-74
2023/03/29 03:12:43;;;;;;;7.30;2.08;;;7.80;83.10;;;;;;4990360;28;20031;-74
2023/03/29 03:15:09;;;;;;;3.03;1.63;;;7.80;78.30;;;;;;4989755;28;20402;-74
2023/03/29 03:17:38;;;;;;;3.17;1.90;;;7.60;94.20;;;;;;4988572;28;20081;-74
2023/03/29 03:20:09;;;;;;;2.92;1.65;;;7.70;77.20;;;;;;4989606;28;20484;-73
2023/03/29 03:22:35;;;;;;;3.40;2.15;;;7.70;91.80;;;;;;4990100;28;20038;-73
2023/03/29 03:25:01;;;;;;;4.03;2.15;;;;;;;;;;4988577;28;20014;-73
2023/03/29 03:27:26;;;;;;;2.15;1.95;;;7.90;89.10;;;;;;4989788;28;20494;-74
2023/03/29 03:29:52;;;;;;;3.92;2.03;;;8.00;86.30;;;;;;4989593;28;20058;-73
2023/03/29 03:32:18;;;;;;;4.18;1.52;;;;;;;;;;4990042;28;20120;-74
2023/03/29 03:34:44;;;;;;;2.88;2.05;;;;;;;;;;4988825;28;20089;-74
2023/03/29 03:37:10;;;;;;;2.78;1.60;;;7.60;94.10;;;;;;4989369;28;20026;-74
2023/03/29 03:39:37;;;;;;;2.07;1.63;;;;;;;;;;4989232;28;20081;-73
2023/03/29 03:42:02;;;;;;;1.90;1.67;;;7.70;94.60;;;;;;4989945;28;20026;-73
2023/03/29 03:44:28;;;;;;;2.47;2.08;;;7.40;95.00;;;;;;4989410;28;20034;-74
2023/03/29 03:46:54;;;;;;;4.32;1.80;;;;;;;;;;4989446;28;20065;-73
2023/03/29 03:49:21;;;;;;;3.63;2.33;;;;;;;;;;4989540;28;20516;-73
2023/03/29 03:51:46;;;;;;;1.30;1.20;;;7.40;95.60;;;;;;4989447;28;20057;-73
2023/03/29 03:54:12;;;;;;;2.83;1.70;;;7.00;95.10;;;;;;4989669;28;20034;-73
2023/03/29 03:56:38;;;;;;;3.40;1.88;;;;;;;;;;4988944;28;20125;-74
2023/03/29 03:59:05;;;;;;;2.72;1.90;;;7.20;81.50;;;;;;4989588;28;20427;-74
2023/03/29 04:01:32;;;;;;;4.22;2.22;;;;;;;;;;4989570;28;20395;-74
2023/03/29 04:03:58;;;;;;;3.25;2.20;;;6.90;94.60;;;;;;4989300;28;20113;-73
2023/03/29 04:06:24;;;;;;;5.63;2.47;;;;;;;;;;4989576;28;20563;-73
2023/03/29 04:08:50;;;;;;;3.13;1.88;;;7.00;89.10;;;;;;4989077;28;20057;-73
2023/03/29 04:11:16;;;;;;;1.58;1.48;;;;;;;;;;4989505;28;20482;-74
2023/03/29 04:13:42;;;;;;;7.00;2.00;;;;;;;;;;4988447;28;20105;-73
2023/03/29 04:16:08;;;;;;;3.28;1.65;;;;;;;;;;4988700;28;20019;-73
2023/03/29 04:18:34;;;;;;;5.90;1.85;;;;;;;;;;4989335;28;20146;-74
2023/03/29 04:21:01;;;;;;;4.65;1.95;;;;;;;;;;4989210;28;20034;-74
2023/03/29 04:23:27;;;;;;;2.08;1.85;;;7.50;96.50;;;;;;4988793;28;20029;-73
2023/03/29 04:25:55;;;;;;;2.53;1.70;;;7.00;96.70;;;;;;4989067;28;20417;-73
2023/03/29 04:28:21;;;;;;;2.40;1.95;;;7.30;92.10;;;;;;4988650;28;20121;-73
2023/03/29 04:30:47;;;;;;;2.42;1.92;;;;;;;;;;4988670;28;20149;-74
2023/03/29 04:33:13;;;;;;;3.47;1.70;;;7.30;97.00;;;;;;4988588;28;20035;-74
2023/03/29 04:35:39;;;;;;;1.60;1.48;;;7.40;90.80;;;;;;4989042;28;20041;-73
2023/03/29 04:38:08;;;;;;;3.35;1.50;;;;;;;;;;4992656;28;20598;-74
2023/03/29 04:40:34;;;;;;;2.72;1.50;;;;;;;;;;4993080;28;20037;-74
2023/03/29 04:43:01;;;;;;;2.88;1.40;;;;;;;;;;4992745;28;20026;-73
2023/03/29 04:45:27;;;;;;;4.28;1.90;;;7.10;97.80;;;;;;4992586;28;20053;-74
2023/03/29 04:47:55;;;;;;;3.72;2.30;;;7.10;97.60;;;;;;4992759;28;20038;-74
2023/03/29 04:50:21;;;;;;;3.90;2.70;;;;;;;;;;4992204;28;20514;-74
2023/03/29 04:52:49;;;;;;;3.83;2.70;;;7.00;97.90;;;;;;4992243;28;20015;-73
2023/03/29 04:55:15;;;;;;;;;;;7.10;89.30;;;;;;4993164;28;20395;-74
2023/03/29 04:57:43;;;;;;;5.80;2.15;;;;;;;;;;4992440;28;20426;-74
2023/03/29 05:00:14;;;;;;;1.98;1.65;;;6.80;88.10;;;;;;4992514;28;20117;-73
2023/03/29 05:02:41;;;;;;;1.58;1.48;;;6.80;97.90;;;;;;4992498;28;20030;-74
2023/03/29 05:05:08;;;;;;;2.08;1.88;;;6.90;90.90;;;;;;4992009;28;20038;-74
2023/03/29 05:07:34;;;;;;;2.53;2.17;;;;;;;;;;4992611;28;20081;-74
2023/03/29 05:10:00;;;;;;;4.10;2.17;;;7.30;91.10;;;;;;4991893;28;20031;-74
2023/03/29 05:12:26;;;;;;;3.95;2.28;;;7.20;97.00;;;;;;4992744;28;20019;-73
2023/03/29 05:14:52;;;;;;;2.30;2.10;;;7.40;93.20;;;;;;4992182;28;20058;-73
2023/03/29 05:17:18;;;;;;;3.53;2.45;;;;;;;;;;4992626;28;20026;-74
2023/03/29 05:19:44;;;;;;;7.35;2.25;;;;;;;;;;4991946;28;20066;-74
2023/03/29 05:22:10;;;;;;;3.83;2.47;;;;;;;;;;4992191;28;20030;-74
2023/03/29 05:24:36;;;;;;;3.35;3.00;;;;;;;;;;4992307;28;20041;-74
2023/03/29 05:27:02;;;;;;;5.00;2.50;;;;;;;;;;4991221;28;20019;-73
2023/03/29 05:29:28;;;;;;;9.98;3.80;;;;;;;;;;4987402;28;20078;-74
2023/03/29 05:31:54;;;;;;;6.60;2.50;;;;;;;;;;4991105;28;20057;-74
2023/03/29 05:34:20;;;;;;;2.80;1.77;;;;;;;;;;4989547;28;20469;-74
2023/03/29 05:36:47;;;;;;;5.05;2.42;;;;;;;;;;4989417;28;20031;-73
2023/03/29 05:39:14;;;;;;;3.08;1.88;;;;;;;;;;4989259;28;20041;-74
2023/03/29 05:41:40;;;;;;;6.55;2.17;;;;;;;;;;4989049;28;20031;-74
2023/03/29 05:44:07;;;;;;;4.43;2.42;;;;;;;;;;4988667;28;20044;-73
2023/03/29 05:46:33;;;;;;;3.30;2.15;;;7.60;95.90;;;;;;4989599;28;20419;-73
2023/03/29 05:49:00;;;;;;;4.10;2.35;;;;;;;;;;4988161;28;20073;-75
2023/03/29 05:51:26;;;;;;;6.53;1.98;;;7.90;95.50;;;;;;4989987;28;20033;-75
2023/03/29 05:53:52;;;;;;;6.03;2.50;;;;;;;;;;4989571;28;20042;-75
2023/03/29 05:56:18;;;;;;;9.30;2.78;;;;;;;;;;4996626;28;20026;-75
2023/03/29 05:58:48;;;;;;;4.60;2.08;;;8.20;78.30;;;;;;4989284;28;20038;-75
2023/03/29 06:01:14;;;;;;;4.45;2.60;;;;;;;;;;4988380;28;20030;-76
2023/03/29 06:03:40;;;;;;;4.38;2.17;;;;;;;;;;4986324;28;20026;-75
2023/03/29 06:06:08;;;;;;;3.80;2.20;;;;;;;;;;4987405;28;20042;-74
2023/03/29 06:08:34;;;;;;;2.38;1.98;;;;;;;;;;4985748;28;20590;-75
2023/03/29 06:11:02;;;;;;;2.30;2.10;;;8.40;77.70;;;;;;4988423;28;20141;-74
2023/03/29 06:13:29;;;;;;;7.57;2.20;;;8.60;77.40;;;;;;4982415;28;20101;-75
2023/03/29 06:15:55;;;;;;;7.13;2.80;;;8.90;94.00;;;;;;4988883;28;20065;-75
2023/03/29 06:18:21;;;;;;;2.72;2.45;;;8.60;91.90;;;;;;4989545;28;20038;-80
2023/03/29 06:20:49;;;;;;;4.10;2.70;;;9.00;93.60;;;;;;4989198;28;20086;-81
2023/03/29 06:23:14;;;;;;;2.30;1.67;;;9.20;81.90;;;;;;4989151;28;20029;-80
2023/03/29 06:25:40;;;;;;;2.20;1.90;;;;;;;;;;4991258;28;20085;-80
2023/03/29 06:28:06;;;;;;;4.32;2.67;;;;;;;;;;4988567;28;20034;-74
2023/03/29 06:30:32;;;;;;;6.22;3.00;;;;;;;;;;4989276;28;20173;-75
2023/03/29 06:32:59;;;;;;;9.23;3.90;;;;;;;;;;4988815;28;20476;-75
2023/03/29 06:35:26;;;;;;;6.53;3.15;;;;;;;;;;4988797;28;20065;-78
2023/03/29 06:37:53;;;;;;;3.72;2.25;;;10.20;82.10;;;;;;4988551;28;20046;-75
2023/03/29 06:40:23;;;;;;;4.60;2.65;;;10.20;71.10;;;;;;4989274;28;20112;-78
2023/03/29 06:42:56;;;;;;;8.95;2.78;;;;;;;;;;4988624;28;20092;-82
2023/03/29 06:45:22;;;;;;;5.57;2.88;;;;;;;;;;4988729;28;20062;-80
2023/03/29 06:47:48;;;;;;;8.63;4.18;;;;;;;;;;4988657;28;20041;-82
2023/03/29 06:50:16;;;;;;;11.85;4.75;;;;;;;;;;4988349;28;20026;-74
2023/03/29 06:52:42;;;;;;;;;;;11.20;68.50;;;;;;4989599;28;20038;-74
2023/03/29 06:55:08;;;;;;;4.38;2.92;;;;;;;;;;4989014;28;19905;-80
2023/03/29 06:57:34;;;;;;;7.40;3.97;;;;;;;;;;4988158;28;20026;-80
2023/03/29 07:00:00;;;;;;;8.95;3.60;;;;;;;;;;4988701;28;20093;-77
2023/03/29 07:02:27;;;;;;;7.78;3.92;;;;;;;;;;4988572;28;20114;-79
2023/03/29 07:04:54;;;;;;;16.08;6.82;;;15.30;77.50;;;;;;4987908;28;20416;-78
2023/03/29 07:07:20;;;;;;;8.02;4.47;;;;;;;;;;4988740;28;20697;-77
2023/03/29 07:09:52;;;;;;;8.95;4.45;;;;;;;;;;4988185;28;20037;-76
2023/03/29 07:12:22;;;;;;;7.40;3.92;;;20.50;50.40;;;;;;4988020;28;20637;-72
2023/03/29 07:14:48;;;;;;;7.63;4.65;;;;;;;;;;4988155;28;20034;-72
2023/03/29 07:17:15;;;;;;;7.32;4.78;;;;;;;;;;4988360;28;20404;-72
2023/03/29 07:19:41;;;;;;;9.00;4.35;;;;;;;;;;4987686;28;20023;-73
2023/03/29 07:22:08;;;;;;;8.35;4.72;;;;;;;;;;4988459;28;20065;-74
2023/03/29 07:24:34;;;;;;;7.07;5.50;;;;;;;;;;4987613;28;20034;-74
2023/03/29 07:27:00;;;;;;;6.20;4.05;;;21.60;51.30;;;;;;4987572;28;20377;-74
2023/03/29 07:29:27;;;;;;;10.68;4.20;;;;;;;;;;4987784;28;20503;-74
2023/03/29 07:31:53;;;;;;;6.88;3.60;;;;;;;;;;4987440;28;20486;-75
2023/03/29 07:34:19;;;;;;;7.13;4.03;;;20.80;62.00;;;;;;4988424;28;20029;-74
2023/03/29 07:36:46;;;;;;;6.85;3.55;;;;;;;;;;4988908;28;20022;-74
2023/03/29 07:39:13;;;;;;;6.03;4.13;;;;;;;;;;4988641;28;20038;-75
2023/03/29 07:41:40;;;;;;;4.88;3.65;;;;;;;;;;4987969;28;20022;-75
2023/03/29 07:44:07;;;;;;;6.72;3.38;;;;;;;;;;4988546;28;20034;-74
2023/03/29 07:46:35;;;;;;;8.93;4.00;;;20.00;45.50;;;;;;4988284;28;20046;-72
2023/03/29 07:49:01;;;;;;;7.22;3.55;;;19.80;56.10;;;;;;4988339;28;20049;-75
2023/03/29 07:51:27;;;;;;;14.33;3.00;;;19.00;64.30;;;;;;4988887;28;20026;-75
2023/03/29 07:53:52;;;;;;;7.03;2.75;;;18.30;59.00;;;;;;4988595;28;20503;-74
2023/03/29 07:56:19;;;;;;;5.93;2.45;;;;;;;;;;4988094;28;20018;-70
2023/03/29 07:58:45;;;;;;;4.68;2.42;;;17.00;57.70;;;;;;4988119;28;20026;-72
2023/03/29 08:01:14;;;;;;;5.55;3.28;;;;;;;;;;4988202;28;20443;-72
2023/03/29 08:03:40;;;;;;;4.78;2.50;;;16.30;53.60;;;;;;4987929;28;20038;-74
2023/03/29 08:06:06;;;;;;;5.57;3.50;;;;;;;;;;4988698;28;20030;-75
2023/03/29 08:08:32;;;;;;;13.63;4.40;;;;;;;;;;4988261;28;20031;-77
2023/03/29 08:10:58;;;;;;;9.23;4.07;;;;;;;;;;4987416;28;20097;-77
2023/03/29 08:13:25;;;;;;;6.75;5.30;;;;;;;;;;4987820;28;20034;-74
2023/03/29 08:15:51;;;;;;;8.25;4.93;;;;;;;;;;4987816;28;20425;-75
2023/03/29 08:18:16;;;;;;;10.23;5.53;;;16.80;65.40;;;;;;4987617;28;20502;-79
2023/03/29 08:20:42;;;;;;;12.15;5.63;;;;;;;;;;4988518;28;20093;-79
2023/03/29 08:23:08;;;;;;;14.57;5.95;;;16.40;55.50;;;;;;4988452;28;20045;-78
2023/03/29 08:25:34;;;;;;;14.43;5.97;;;;;;;;;;4988307;28;20027;-77
2023/03/29 08:28:00;;;;;;;8.65;5.07;;;;;;;;;;4988303;28;20042;-77
2023/03/29 08:30:26;;;;;;;8.68;5.60;;;;;;;;;;4987908;28;20038;-77
2023/03/29 08:32:52;;;;;;;8.93;4.63;;;;;;;;;;4988180;28;20080;-71
2023/03/29 08:35:18;;;;;;;10.95;5.05;;;17.50;56.10;;;;;;4987993;28;20480;-75
2023/03/29 08:37:44;;;;;;;7.60;5.72;;;;;;;;;;4987951;28;20030;-78
2023/03/29 08:40:22;;;;;;;13.63;4.35;;;17.10;68.10;;;;;;4987919;28;20039;-71
2023/03/29 08:42:54;;;;;;;10.55;5.80;;;16.70;50.40;;;;;;4987943;28;20065;-72
2023/03/29 08:45:34;;;;;;;13.77;7.03;;;16.40;51.10;;;;;;4988151;28;20455;-72
2023/03/29 08:48:13;;;;;;;9.27;5.47;;;16.10;52.30;;;;;;4982007;28;20038;-73
2023/03/29 08:50:46;;;;;;;11.63;6.85;;;16.10;72.50;;;;;;4988439;28;20109;-73
2023/03/29 08:53:23;;;;;;;18.83;5.63;;;15.60;54.00;;;;;;4988299;28;20050;-72
2023/03/29 08:55:50;;;;;;;10.47;5.40;;;16.00;53.30;;;;;;4987392;28;20038;-73
2023/03/29 08:58:23;;;;;;;18.15;6.35;;;16.40;53.00;;;;;;4987428;28;20296;-73
2023/03/29 09:01:00;;;;;;;12.40;6.45;;;16.90;52.40;;;;;;4988198;28;20027;-75
2023/03/29 09:03:34;;;;;;;12.35;8.00;;;17.30;52.10;;;;;;4983942;28;20780;-76
2023/03/29 09:06:05;;;;;;;19.05;7.05;;;18.10;56.90;;;;;;4986549;28;20507;-79
2023/03/29 09:08:37;;;;;;;8.63;6.75;;;19.30;49.30;;;;;;4987598;28;20524;-76
2023/03/29 09:11:57;;;;;;;13.55;6.22;;;21.90;46.20;;;;;;4987742;28;20030;-77
2023/03/29 09:14:34;;;;;;;9.75;6.25;;;23.90;42.70;;;;;;4965700;28;20511;-77
2023/03/29 09:17:17;;;;;;;8.52;5.97;;;24.60;41.10;;;;;;4982032;28;20149;-77
2023/03/29 09:20:06;;;;;;;11.65;7.20;;;23.30;58.50;;;;;;4984878;28;20129;-76
2023/03/29 09:22:45;;;;;;;8.25;6.15;;;21.90;44.10;;;;;;4969079;28;20370;-75
2023/03/29 09:25:33;;;;;;;9.45;6.63;;;21.00;46.00;;;;;;4987724;28;20089;-75
2023/03/29 09:28:27;;;;;;;12.63;6.40;;;20.60;52.70;;;;;;4987982;28;20073;-74
2023/03/29 09:31:15;;;;;;;14.85;6.57;;;23.40;45.80;;;;;;4988352;28;20031;-75
2023/03/29 09:33:57;;;;;;;11.18;5.70;;;24.40;42.50;;;;;;4977971;28;20113;-74
2023/03/29 09:36:30;;;;;;;7.25;4.57;;;24.00;45.00;;;;;;4987844;28;20034;-75
2023/03/29 09:38:56;;;;;;;12.32;5.85;;;;;;;;;;4988298;28;20112;-75
2023/03/29 09:41:35;;;;;;;13.30;5.82;;;24.60;48.90;;;;;;4987298;28;20511;-76
2023/03/29 09:44:07;;;;;;;16.50;5.18;;;25.60;57.70;;;;;;4971541;28;20038;-77
2023/03/29 09:46:46;;;;;;;9.48;5.13;;;29.00;38.40;;;;;;4983227;28;20058;-79
2023/03/29 09:49:17;;;;;;;6.05;4.22;;;33.40;36.50;;;;;;4988897;28;20081;-79
2023/03/29 09:51:46;;;;;;;7.78;3.85;;;36.90;32.10;;;;;;4990598;28;20105;-78
2023/03/29 09:54:12;;;;;;;6.05;4.07;;;;;;;;;;4989814;28;20034;-79
2023/03/29 09:56:39;;;;;;;7.95;3.70;;;42.60;39.50;;;;;;4990274;28;20805;-81
2023/03/29 09:59:05;;;;;;;7.35;3.03;;;43.70;38.10;;;;;;4990294;28;20034;-81
2023/03/29 10:01:43;;;;;;;8.60;2.50;;;43.80;37.00;;;;;;4990250;28;20096;-75
2023/03/29 10:04:10;;;;;;;7.82;2.25;;;44.60;26.90;;;;;;4990341;28;20046;-74
2023/03/29 10:06:41;;;;;;;7.13;1.77;;;45.50;35.30;;;;;;4991031;28;20463;-75
2023/03/29 10:09:15;;;;;;;6.68;3.67;;;45.80;34.60;;;;;;4985640;28;20869;-74
2023/03/29 10:11:46;;;;;;;5.07;1.73;;;46.80;34.60;;;;;;4984349;28;20480;-75
2023/03/29 10:14:16;;;;;;;3.35;1.38;;;47.20;23.90;;;;;;4990138;28;20030;-74
2023/03/29 10:16:44;;;;;;;6.38;1.50;;;47.30;32.60;;;;;;4990657;28;20031;-75
2023/03/29 10:19:33;;;;;;;8.00;1.63;;;47.70;23.80;;;;;;4985460;28;20046;-75
2023/03/29 10:22:15;;;;;;;6.43;0.85;;;47.20;25.10;;;;;;4985633;28;20145;-74
2023/03/29 10:24:48;;;;;;;3.38;1.50;;;48.00;32.60;;;;;;4990244;28;20038;-75
2023/03/29 10:27:15;;;;;;;3.78;1.15;;;48.40;31.30;;;;;;4978880;28;20083;-75
2023/03/29 10:29:42;;;;;;;4.03;1.25;;;;;;;;;;4989473;28;20125;-75
2023/03/29 10:32:38;;;;;;;4.28;0.82;;;49.50;25.10;;;;;;4981916;28;20498;-75
2023/03/29 10:35:18;;;;;;;3.78;1.00;;;50.20;23.60;;;;;;4987848;28;20388;-73
2023/03/29 10:37:48;;;;;;;7.43;1.33;;;49.00;31.00;;;;;;4987212;28;20073;-75
2023/03/29 10:40:34;;;;;;;10.88;1.50;;;48.40;22.30;;;;;;4988663;28;20034;-74
2023/03/29 10:43:12;;;;;;;6.88;1.40;;;48.60;26.20;;;;;;4988945;28;20036;-74
2023/03/29 10:45:38;;;;;;;3.55;1.20;;;48.90;22.20;;;;;;4986545;28;20057;-75
2023/03/29 10:48:08;;;;;;;6.32;0.85;;;49.00;21.90;;;;;;4988691;28;20074;-75
2023/03/29 10:50:36;;;;;;;3.22;1.00;;;49.30;30.50;;;;;;4989340;28;20069;-75
2023/03/29 10:53:10;;;;;;;8.20;1.40;;;48.40;24.30;;;;;;4988955;28;20387;-75
2023/03/29 10:55:47;;;;;;;10.80;2.17;;;48.60;28.80;;;;;;4988199;28;20033;-76
2023/03/29 10:58:22;;;;;;;2.15;1.02;;;48.10;22.30;;;;;;4988794;28;20034;-75
2023/03/29 11:00:55;;;;;;;7.65;1.83;;;46.40;22.10;;;;;;4989088;28;20019;-75
2023/03/29 11:03:46;;;;;;;4.00;1.20;;;46.80;22.60;;;;;;4984477;28;20161;-75
2023/03/29 11:06:13;;;;;;;3.78;1.65;;;;;;;;;;4984808;28;20038;-75
2023/03/29 11:08:57;;;;;;;6.63;1.25;;;46.30;22.80;;;;;;4988255;28;20066;-75
2023/03/29 11:11:31;;;;;;;7.82;1.40;;;46.20;32.00;;;;;;4982323;28;20038;-75
2023/03/29 11:14:20;;;;;;;3.45;1.58;;;47.60;32.10;;;;;;4984867;28;20030;-75
2023/03/29 11:17:01;;;;;;;4.35;1.00;;;47.90;22.60;;;;;;4988539;28;20019;-75
2023/03/29 11:19:42;;;;;;;3.50;1.10;;;48.10;22.40;;;;;;4983970;28;20030;-75
2023/03/29 11:22:22;;;;;;;7.18;2.63;;;47.10;22.40;;;;;;4980158;28;20030;-75
2023/03/29 11:25:19;;;;;;;4.45;1.40;;;46.50;22.50;;;;;;4988062;28;20072;-75
2023/03/29 11:27:45;;;;;;;8.75;1.58;;;;;;;;;;5004529;28;20034;-75
2023/03/29 11:30:13;;;;;;;;;;;45.50;22.60;;;;;;5001754;28;20085;-75
2023/03/29 11:33:10;;;;;;;5.25;1.05;;;44.10;22.90;;;;;;5002784;28;19913;-75
2023/03/29 11:35:36;;;;;;;7.68;1.27;;;;;;;;;;4985272;28;20038;-75
2023/03/29 11:38:20;;;;;;;;;;;43.50;23.00;;;;;;4984809;28;20034;-75
2023/03/29 11:41:02;;;;;;;17.13;2.43;;;40.80;22.70;;;;;;4984835;28;19921;-76
2023/03/29 11:43:43;;;;;;;4.57;1.85;;;38.60;23.20;;;;;;4960560;28;20031;-75
2023/03/29 11:46:15;;;;;;;7.25;1.48;;;36.90;23.90;;;;;;4984137;28;20090;-75
2023/03/29 11:49:09;;;;;;;8.27;1.50;;;36.90;24.10;;;;;;4985339;28;20074;-75
2023/03/29 11:51:42;;;;;;;7.72;0.95;;;37.90;35.80;;;;;;4985157;28;20038;-75
2023/03/29 11:54:20;;;;;;;2.63;1.10;;;38.60;23.40;;;;;;4983696;28;20129;-75
2023/03/29 11:57:09;;;;;;;3.75;0.88;;;38.40;23.10;;;;;;4985071;28;20044;-75
2023/03/29 11:59:42;;;;;;;4.53;1.63;;;35.50;24.10;;;;;;4984285;28;20093;-78
2023/03/29 12:02:38;;;;;;;9.55;1.42;;;35.70;24.70;;;;;;4985440;28;20033;-72
2023/03/29 12:05:12;;;;;;;10.07;0.73;;;37.50;23.80;;;;;;4952799;28;20058;-73
2023/03/29 12:08:11;;;;;;;6.05;1.40;;;38.40;23.40;;;;;;4942252;28;20151;-74
2023/03/29 12:11:12;;;;;;;4.32;0.75;;;36.60;36.40;;;;;;4945024;29;20059;-74
2023/03/29 12:13:38;;;;;;;7.03;1.42;;;;;;;;;;4984454;28;20042;-73
2023/03/29 12:16:35;;;;;;;6.78;1.50;;;33.30;27.00;;;;;;4984113;28;20109;-72
2023/03/29 12:19:16;;;;;;;11.52;2.28;;;31.10;26.60;;;;;;4985084;28;20034;-73
2023/03/29 12:21:44;;;;;;;9.93;1.90;;;30.50;27.60;;;;;;4984487;28;20236;-79
2023/03/29 12:24:12;;;;;;;8.02;1.30;;;30.60;27.50;;;;;;4984824;28;20511;-79
2023/03/29 12:27:07;;;;;;;12.32;2.60;;;31.10;27.40;;;;;;4985159;28;20598;-78
2023/03/29 12:29:38;;;;;;;8.05;1.90;;;31.00;34.90;;;;;;4984884;28;20058;-78
2023/03/29 12:32:24;;;;;;;8.50;1.83;;;30.90;28.70;;;;;;4984978;28;20065;-75
2023/03/29 12:35:10;;;;;;;9.73;3.97;;;30.70;27.20;;;;;;4984922;28;20088;-76
2023/03/29 12:37:36;;;;;;;8.30;1.67;;;;;;;;;;4985066;28;20223;-75
2023/03/29 12:40:11;;;;;;;7.38;1.42;;;30.30;32.20;;;;;;4985771;28;20488;-75
2023/03/29 12:42:47;;;;;;;10.80;1.13;;;29.80;27.80;;;;;;4985512;28;20467;-76
2023/03/29 12:45:18;;;;;;;4.60;1.67;;;29.60;28.10;;;;;;4984820;28;20120;-75
2023/03/29 12:47:46;;;;;;;3.85;1.55;;;29.30;43.20;;;;;;4985502;28;20061;-77
2023/03/29 12:50:31;;;;;;;6.88;1.63;;;29.00;28.20;;;;;;4981980;28;20046;-77
2023/03/29 12:53:29;;;;;;;3.00;1.30;;;29.20;44.60;;;;;;4976084;28;20022;-75
2023/03/29 12:56:07;;;;;;;8.68;2.08;;;29.20;42.30;;;;;;4987830;28;20038;-75
2023/03/29 12:58:41;;;;;;;9.57;1.60;;;29.30;44.50;;;;;;4990630;28;20014;-75
2023/03/29 13:01:32;;;;;;;4.40;1.80;;;29.40;44.40;;;;;;4980754;28;20060;-74
2023/03/29 13:04:19;;;;;;;4.60;1.55;;;29.60;28.50;;;;;;4991110;28;20836;-69
2023/03/29 13:06:45;;;;;;;5.20;1.33;;;;;;;;;;4990265;28;20076;-69
2023/03/29 13:09:29;;;;;;;3.03;0.82;;;29.50;28.70;;;;;;4991472;28;20489;-75
2023/03/29 13:12:19;;;;;;;9.40;1.73;;;29.20;45.00;;;;;;4991363;28;20407;-75
2023/03/29 13:14:54;;;;;;;3.25;1.35;;;28.80;29.40;;;;;;4991608;28;20046;-75
2023/03/29 13:17:40;;;;;;;8.60;1.98;;;28.40;29.70;;;;;;4990496;28;20035;-74
2023/03/29 13:20:32;;;;;;;5.60;1.90;;;29.70;31.20;;;;;;4991452;28;20048;-74
2023/03/29 13:23:15;;;;;;;2.47;1.08;;;27.60;36.60;;;;;;4988366;28;20066;-73
2023/03/29 13:25:57;;;;;;;13.13;1.67;;;27.40;31.30;;;;;;4984155;28;20034;-73
2023/03/29 13:28:45;;;;;;;8.73;1.88;;;26.90;31.70;;;;;;4988947;28;20069;-74
2023/03/29 13:31:31;;;;;;;11.48;1.40;;;26.50;32.10;;;;;;4987885;28;20034;-73
2023/03/29 13:34:36;;;;;;;5.85;1.48;;;26.40;32.50;;;;;;4990948;28;20038;-73
2023/03/29 13:37:30;;;;;;;4.83;2.33;;;26.20;49.90;;;;;;4987423;28;20386;-73
2023/03/29 13:39:56;;;;;;;11.52;1.60;;;;;;;;;;4980086;28;20033;-72
2023/03/29 13:42:22;;;;;;;6.65;1.65;;;26.10;49.60;;;;;;4990976;28;20387;-74
2023/03/29 13:44:48;;;;;;;7.70;1.85;;;;;;;;;;4990482;28;20029;-72
2023/03/29 13:47:32;;;;;;;6.57;1.27;;;26.60;33.00;;;;;;4990138;28;20060;-72
2023/03/29 13:50:02;;;;;;;5.25;1.35;;;26.70;49.10;;;;;;4989636;28;20096;-69